Time;durP1;ratioP1;P1;durP2;ratioP2;P2;SDS_P1;SDS_P2;PMS_P1;PMS_P2;Temp;Humidity;BMP_temperature;BMP_pressure;BME280_temperature;BME280_humidity;BME280_pressure;Samples;Min_cycle;Max_cycle;Signal;HPM_P1;HPM_P2
2023/10/23 00:02:06;;;;;;;;;;;8.20;99.90;;;;;;4856719;29;19950;-78
2023/10/23 00:04:40;;;;;;;;;;;8.20;99.90;;;;;;4857074;29;19912;-79
2023/10/23 00:07:12;;;;;;;;;;;8.30;99.90;;;;;;4839504;29;19964;-79
2023/10/23 00:09:40;;;;;;;;;;;8.20;99.90;;;;;;4873700;29;20188;-79
2023/10/23 00:12:18;;;;;;;;;;;8.20;99.90;;;;;;4872939;29;19998;-78
2023/10/23 00:14:44;;;;;;;;;;;8.20;99.90;;;;;;4872994;29;19979;-77
2023/10/23 00:20:28;;;;;;;;;;;8.10;99.90;;;;;;4872410;29;19956;-79
2023/10/23 00:23:03;;;;;;;;;;;8.00;99.90;;;;;;4841058;29;20190;-79
2023/10/23 00:25:29;;;;;;;;;;;8.00;99.90;;;;;;4871881;29;19931;-79
2023/10/23 00:28:03;;;;;;;;;;;8.00;99.90;;;;;;4856409;29;20193;-79
2023/10/23 00:30:33;;;;;;;;;;;8.00;99.90;;;;;;4872447;29;19915;-79
2023/10/23 05:57:38;;;;;;;;;;;5.90;99.90;;;;;;4869816;29;19932;-79
2023/10/23 06:00:04;;;;;;;;;;;5.90;99.90;;;;;;4839093;29;19916;-78
2023/10/23 06:02:33;;;;;;;;;;;5.80;99.90;;;;;;4854568;29;19912;-79
2023/10/23 06:05:05;;;;;;;;;;;5.80;99.90;;;;;;4852983;29;19931;-79
2023/10/23 06:07:36;;;;;;;;;;;5.80;99.90;;;;;;4871135;29;20098;-79
2023/10/23 06:10:05;;;;;;;;;;;5.80;99.90;;;;;;4870911;29;20145;-78
2023/10/23 06:12:43;;;;;;;;;;;5.90;99.90;;;;;;4839233;29;20150;-79
2023/10/23 06:15:10;;;;;;;;;;;5.90;99.90;;;;;;4870727;29;19908;-78
2023/10/23 06:17:38;;;;;;;;;;;5.90;99.90;;;;;;4870634;29;19908;-78
2023/10/23 06:20:05;;;;;;;;;;;6.00;99.90;;;;;;4854537;29;19911;-80
2023/10/23 06:22:30;;;;;;;;;;;6.00;99.90;;;;;;4869766;29;19918;-78
2023/10/23 06:25:20;;;;;;;;;;;6.10;99.90;;;;;;4832742;29;19923;-78
2023/10/23 06:27:46;;;;;;;;;;;6.10;99.90;;;;;;4831868;29;20081;-78
2023/10/23 06:30:12;;;;;;;;;;;6.20;99.90;;;;;;4832062;29;19909;-78
2023/10/23 06:32:53;;;;;;;;;;;6.20;99.90;;;;;;4831633;29;19949;-79
2023/10/23 06:35:37;;;;;;;;;;;6.30;99.90;;;;;;4816775;29;19976;-79
2023/10/23 06:38:06;;;;;;;;;;;6.30;99.90;;;;;;4831753;29;19957;-79
2023/10/23 06:41:05;;;;;;;;;;;6.40;99.90;;;;;;4831224;29;19915;-79
2023/10/23 06:43:35;;;;;;;;;;;6.50;99.90;;;;;;4831659;29;19920;-79
2023/10/23 06:46:35;;;;;;;;;;;6.60;99.90;;;;;;4817382;29;19976;-79
2023/10/23 06:49:01;;;;;;;;;;;6.70;99.90;;;;;;4832256;29;19908;-79
2023/10/23 06:51:32;;;;;;;;;;;6.80;99.90;;;;;;4832054;29;19947;-79
2023/10/23 06:54:04;;;;;;;;;;;6.90;99.90;;;;;;4816869;29;19973;-78
2023/10/23 06:56:29;;;;;;;;;;;7.10;99.90;;;;;;4856737;29;19923;-79
2023/10/23 06:58:58;;;;;;;;;;;7.10;99.90;;;;;;4870625;29;19983;-79
2023/10/23 07:01:36;;;;;;;;;;;7.20;99.90;;;;;;4870312;29;19956;-79
2023/10/23 07:04:13;;;;;;;;;;;7.30;99.90;;;;;;4869659;29;19908;-78
2023/10/23 07:06:39;;;;;;;;;;;7.40;99.90;;;;;;4869639;29;19952;-79
2023/10/23 07:09:04;;;;;;;;;;;7.50;99.90;;;;;;4837753;29;19983;-79
2023/10/23 07:12:09;;;;;;;;;;;7.60;99.90;;;;;;4835625;29;19908;-79
2023/10/23 07:14:34;;;;;;;;;;;7.70;99.90;;;;;;4815657;29;20190;-80
2023/10/23 07:17:03;;;;;;;;;;;7.70;99.90;;;;;;4816679;29;19916;-80
2023/10/23 07:19:37;;;;;;;;;;;7.80;99.90;;;;;;4816095;29;19964;-80
2023/10/23 07:22:06;;;;;;;;;;;7.90;99.90;;;;;;4816499;29;19916;-80
2023/10/23 07:24:31;;;;;;;;;;;8.00;99.90;;;;;;4800034;29;19920;-80
2023/10/23 07:27:03;;;;;;;;;;;8.00;99.90;;;;;;4815794;29;19979;-79
2023/10/23 07:29:47;;;;;;;;;;;8.10;99.90;;;;;;4831620;29;20147;-80
2023/10/23 07:32:41;;;;;;;;;;;8.10;99.90;;;;;;4831162;29;19916;-78
2023/10/23 07:35:08;;;;;;;;;;;8.10;99.90;;;;;;4831714;29;19983;-79
2023/10/23 07:37:55;;;;;;;;;;;8.20;99.90;;;;;;4816529;29;20197;-79
2023/10/23 07:40:21;;;;;;;;;;;8.40;99.90;;;;;;4831905;29;19944;-79
2023/10/23 07:43:05;;;;;;;;;;;8.50;99.90;;;;;;4816125;29;20202;-79
2023/10/23 07:45:45;;;;;;;;;;;8.60;99.90;;;;;;4856346;29;19912;-81
2023/10/23 07:48:32;;;;;;;;;;;8.80;99.90;;;;;;4843738;29;20013;-82
2023/10/23 07:51:03;;;;;;;;;;;8.80;99.90;;;;;;4842127;29;19908;-78
2023/10/23 07:53:35;;;;;;;;;;;8.90;99.90;;;;;;4835886;29;19995;-80
2023/10/23 07:56:01;;;;;;;;;;;9.00;99.90;;;;;;4854147;29;19912;-80
2023/10/23 07:58:36;;;;;;;;;;;9.10;99.90;;;;;;4854983;29;20023;-78
2023/10/23 08:01:06;;;;;;;;;;;9.30;99.90;;;;;;4848210;29;19939;-77
2023/10/23 08:03:35;;;;;;;;;;;9.50;99.90;;;;;;4829202;29;19916;-79
2023/10/23 08:09:11;;;;;;;;;;;9.70;99.90;;;;;;4873294;29;19914;-80
2023/10/23 08:11:57;;;;;;;;;;;9.80;99.90;;;;;;4804145;29;19955;-79
2023/10/23 08:14:35;;;;;;;;;;;10.00;99.90;;;;;;4786817;29;20199;-78
2023/10/23 08:17:01;;;;;;;;;;;10.10;99.90;;;;;;4797291;30;19909;-78
2023/10/23 08:19:32;;;;;;;;;;;10.10;99.90;;;;;;4783518;30;19909;-79
2023/10/23 08:21:58;;;;;;;;;;;10.10;99.90;;;;;;4782975;30;19914;-77
2023/10/23 08:24:24;;;;;;;;;;;10.20;99.90;;;;;;4782716;30;19917;-78
2023/10/23 08:26:52;;;;;;;;;;;10.30;99.90;;;;;;4782526;30;20102;-79
2023/10/23 08:29:18;;;;;;;;;;;10.30;99.90;;;;;;4782667;30;19905;-78
2023/10/23 08:31:43;;;;;;;;;;;10.30;99.90;;;;;;4797670;30;19917;-78
2023/10/23 08:34:09;;;;;;;;;;;10.40;99.90;;;;;;4783869;30;19916;-80
2023/10/23 08:36:35;;;;;;;;;;;10.50;99.90;;;;;;4784272;30;19909;-80
2023/10/23 08:39:03;;;;;;;;;;;10.50;99.90;;;;;;4768710;30;19977;-77
2023/10/23 08:41:38;;;;;;;;;;;10.70;99.90;;;;;;4782994;30;19943;-77
2023/10/23 08:44:04;;;;;;;;;;;10.70;99.90;;;;;;4782827;30;20184;-78
2023/10/23 08:46:31;;;;;;;;;;;10.70;99.90;;;;;;4783227;30;19937;-78
2023/10/23 08:48:57;;;;;;;;;;;10.60;99.90;;;;;;4812106;29;19929;-78
2023/10/23 08:51:26;;;;;;;;;;;10.80;99.90;;;;;;4856460;29;20102;-78
2023/10/23 08:53:55;;;;;;;;;;;11.00;99.90;;;;;;4840828;29;20106;-78
2023/10/23 08:56:56;;;;;;;;;;;11.20;99.90;;;;;;4872269;29;19983;-79
2023/10/23 08:59:22;;;;;;;;;;;11.20;99.90;;;;;;4833484;29;20230;-78
2023/10/23 09:01:50;;;;;;;;;;;11.30;99.90;;;;;;4833521;29;19946;-80
2023/10/23 09:04:41;;;;;;;;;;;11.40;99.90;;;;;;4846491;29;19904;-78
2023/10/23 09:07:12;;;;;;;;;;;11.40;99.90;;;;;;4838312;29;19910;-77
2023/10/23 09:09:40;;;;;;;;;;;11.60;99.90;;;;;;4870790;29;20212;-78
2023/10/23 09:12:06;;;;;;;;;;;11.70;99.90;;;;;;4872516;29;20101;-78
2023/10/23 09:14:32;;;;;;;;;;;11.60;99.90;;;;;;4841131;29;19908;-77
2023/10/23 09:16:59;;;;;;;;;;;11.60;99.90;;;;;;4841181;29;19947;-77
2023/10/23 09:19:32;;;;;;;;;;;11.40;99.90;;;;;;4856634;29;20094;-79
2023/10/23 09:21:58;;;;;;;;;;;11.50;99.90;;;;;;4855778;29;20220;-77
2023/10/23 09:24:36;;;;;;;;;;;11.40;99.90;;;;;;4841420;29;19927;-77
2023/10/23 09:27:03;;;;;;;;;;;11.50;99.90;;;;;;4863990;29;19908;-78
2023/10/23 09:29:28;;;;;;;;;;;11.50;99.90;;;;;;4872977;29;19908;-80
2023/10/23 09:32:09;;;;;;;;;;;11.70;99.90;;;;;;4856924;29;19923;-79
2023/10/23 09:34:42;;;;;;;;;;;11.60;99.90;;;;;;4841469;29;19912;-79
2023/10/23 09:37:07;;;;;;;;;;;11.70;99.90;;;;;;4871199;29;19915;-78
2023/10/23 09:39:34;;;;;;;;;;;11.60;99.90;;;;;;4856464;29;19904;-78
2023/10/23 09:42:06;;;;;;;;;;;11.60;99.90;;;;;;4853813;29;19939;-78
2023/10/23 09:44:42;;;;;;;;;;;;;;;;;;;;;
2023/10/23 09:47:12;;;;;;;;;;;11.60;99.90;;;;;;4859253;29;19983;-78
2023/10/23 09:49:44;;;;;;;;;;;11.60;99.90;;;;;;4851891;29;19957;-78
2023/10/23 09:52:10;;;;;;;;;;;11.60;99.90;;;;;;4870435;29;19911;-77
2023/10/23 09:54:47;;;;;;;;;;;11.80;99.90;;;;;;4854687;29;19915;-80
2023/10/23 09:57:14;;;;;;;;;;;11.70;99.90;;;;;;4836323;29;19912;-79
2023/10/23 09:59:59;;;;;;;;;;;11.80;99.90;;;;;;4866402;29;19995;-78
2023/10/23 10:02:35;;;;;;;;;;;11.90;99.90;;;;;;4848946;29;19949;-78
2023/10/23 10:05:05;;;;;;;;;;;11.90;99.90;;;;;;4848217;29;20186;-77
2023/10/23 10:07:39;;;;;;;;;;;12.00;99.90;;;;;;4837789;29;19908;-78
2023/10/23 10:10:12;;;;;;;;;;;12.00;99.90;;;;;;4852401;29;19908;-77
2023/10/23 10:12:48;;;;;;;;;;;12.10;99.90;;;;;;4836907;29;19920;-78
2023/10/23 10:15:30;;;;;;;;;;;12.10;99.90;;;;;;4851943;29;19909;-77
2023/10/23 10:17:55;;;;;;;;;;;12.30;99.90;;;;;;4851110;29;19915;-76
2023/10/23 10:20:23;;;;;;;;;;;12.40;99.90;;;;;;4838938;29;20055;-76
2023/10/23 10:23:12;;;;;;;;;;;12.50;99.90;;;;;;4848043;29;19958;-77
2023/10/23 10:25:47;;;;;;;;;;;12.60;99.90;;;;;;4815560;29;19919;-78
2023/10/23 10:28:14;;;;;;;;;;;12.60;99.90;;;;;;4833130;29;20102;-77
2023/10/23 10:31:24;;;;;;;;;;;12.70;99.90;;;;;;4830787;29;19909;-76
2023/10/23 10:33:51;;;;;;;;;;;12.90;99.90;;;;;;4798615;29;19916;-77
2023/10/23 10:36:25;;;;;;;;;;;13.00;99.90;;;;;;4815097;29;19909;-77
2023/10/23 10:38:51;;;;;;;;;;;13.10;99.80;;;;;;4816773;29;20087;-78
2023/10/23 10:41:42;;;;;;;;;;;13.10;99.20;;;;;;4832514;29;19905;-78
2023/10/23 10:44:16;;;;;;;;;;;13.10;99.40;;;;;;4822608;29;19928;-77
2023/10/23 10:46:54;;;;;;;;;;;13.20;99.20;;;;;;4832261;29;19913;-76
2023/10/23 10:49:23;;;;;;;;;;;13.10;98.90;;;;;;4847650;29;20194;-78
2023/10/23 10:51:49;;;;;;;;;;;13.00;98.90;;;;;;4847356;29;19936;-76
2023/10/23 10:54:20;;;;;;;;;;;13.00;98.90;;;;;;4834468;29;19909;-77
2023/10/23 10:56:52;;;;;;;;;;;13.10;99.00;;;;;;4863302;29;19923;-78
2023/10/23 10:59:31;;;;;;;;;;;13.20;98.80;;;;;;4870436;29;19968;-79
2023/10/23 11:01:56;;;;;;;;;;;13.20;98.60;;;;;;4853182;29;19919;-77
2023/10/23 11:04:22;;;;;;;;;;;13.30;98.30;;;;;;4854057;29;19908;-78
2023/10/23 11:06:48;;;;;;;;;;;13.40;98.20;;;;;;4871111;29;19904;-78
2023/10/23 11:09:13;;;;;;;;;;;13.60;98.00;;;;;;4837508;29;19920;-77
2023/10/23 11:11:40;;;;;;;;;;;13.50;97.70;;;;;;4839717;29;19968;-78
2023/10/23 11:14:05;;;;;;;;;;;13.60;97.60;;;;;;4836479;29;19904;-78
2023/10/23 11:16:43;;;;;;;;;;;13.70;97.90;;;;;;4850941;29;19908;-78
2023/10/23 11:19:18;;;;;;;;;;;13.80;97.70;;;;;;4838444;29;19943;-77
2023/10/23 11:21:47;;;;;;;;;;;13.80;97.10;;;;;;4854442;29;19908;-77
2023/10/23 11:24:12;;;;;;;;;;;13.80;97.10;;;;;;4856748;29;19957;-79
2023/10/23 11:26:44;;;;;;;;;;;13.80;97.30;;;;;;4842044;29;19943;-80
2023/10/23 11:29:10;;;;;;;;;;;13.80;97.40;;;;;;4864670;29;19908;-79
2023/10/23 11:31:55;;;;;;;;;;;;;;;;;;;;;
2023/10/23 11:34:37;;;;;;;;;;;14.00;97.00;;;;;;4855724;29;20066;-79
2023/10/23 11:40:37;;;;;;;;;;;14.00;96.80;;;;;;4853838;29;20012;-78
2023/10/23 11:43:08;;;;;;;;;;;13.80;96.60;;;;;;4860116;29;19979;-79
2023/10/23 11:45:34;;;;;;;;;;;14.00;96.60;;;;;;4869608;29;19971;-79
2023/10/23 11:47:59;;;;;;;;;;;14.20;96.30;;;;;;4854234;29;20032;-80
2023/10/23 11:50:25;;;;;;;;;;;14.30;95.80;;;;;;4855084;29;19908;-79
2023/10/23 11:53:17;;;;;;;;;;;14.40;95.90;;;;;;4819977;29;20258;-78
2023/10/23 11:55:44;;;;;;;;;;;14.40;95.70;;;;;;4838183;29;19912;-79
2023/10/23 11:58:32;;;;;;;;;;;14.40;95.80;;;;;;4838806;29;19904;-78
2023/10/23 12:01:33;;;;;;;;;;;14.50;96.10;;;;;;4854051;29;19971;-80
2023/10/23 12:04:10;;;;;;;;;;;14.60;95.80;;;;;;4843050;29;19912;-79
2023/10/23 12:06:37;;;;;;;;;;;14.60;95.80;;;;;;4857717;29;19914;-78
2023/10/23 12:09:07;;;;;;;;;;;14.60;95.50;;;;;;4873265;29;19916;-78
2023/10/23 12:11:46;;;;;;;;;;;14.60;95.80;;;;;;4858281;29;19904;-77
2023/10/23 12:14:12;;;;;;;;;;;14.50;95.90;;;;;;4874283;29;19908;-78
2023/10/23 12:16:44;;;;;;;;;;;14.30;96.10;;;;;;4874349;29;19908;-79
2023/10/23 12:19:16;;;;;;;;;;;14.10;96.40;;;;;;4876030;29;19911;-79
2023/10/23 12:21:44;;;;;;;;;;;14.10;96.70;;;;;;4858868;29;19916;-81
2023/10/23 12:24:10;;;;;;;;;;;14.00;97.40;;;;;;4876134;29;19908;-80
2023/10/23 12:26:36;;;;;;;;;;;13.90;98.10;;;;;;4859103;29;19911;-78
2023/10/23 12:29:07;;;;;;;;;;;13.90;98.20;;;;;;4859028;29;19952;-78
2023/10/23 12:31:35;;;;;;;;;;;13.80;98.10;;;;;;4875676;29;20190;-78
2023/10/23 12:34:30;;;;;;;;;;;13.80;98.40;;;;;;4859336;29;19916;-80
2023/10/23 12:37:13;;;;;;;;;;;13.90;98.50;;;;;;4830591;29;19919;-79
2023/10/23 12:39:42;;;;;;;;;;;13.90;97.90;;;;;;4875526;29;19908;-80
2023/10/23 12:42:08;;;;;;;;;;;14.00;98.10;;;;;;4858136;29;19911;-79
2023/10/23 12:44:33;;;;;;;;;;;14.10;98.00;;;;;;4843860;29;19983;-79
2023/10/23 12:46:59;;;;;;;;;;;14.10;97.60;;;;;;4843630;29;19912;-79
2023/10/23 12:49:27;;;;;;;;;;;14.20;97.30;;;;;;4875927;29;19916;-79
2023/10/23 12:51:53;;;;;;;;;;;14.10;97.80;;;;;;4874958;29;19918;-80
2023/10/23 12:54:36;;;;;;;;;;;14.20;98.00;;;;;;4871639;29;19916;-79
2023/10/23 12:57:03;;;;;;;;;;;14.30;98.80;;;;;;4854453;29;19912;-79
2023/10/23 12:59:29;;;;;;;;;;;14.30;98.30;;;;;;4844318;29;20261;-80
2023/10/23 13:01:58;;;;;;;;;;;14.30;98.30;;;;;;4856212;29;19923;-78
2023/10/23 13:04:27;;;;;;;;;;;14.20;98.40;;;;;;4858399;29;19904;-79
2023/10/23 13:06:53;;;;;;;;;;;14.10;98.30;;;;;;4857222;29;19975;-79
2023/10/23 13:09:25;;;;;;;;;;;14.10;98.50;;;;;;4842061;29;20127;-79
2023/10/23 13:12:19;;;;;;;;;;;14.10;98.40;;;;;;4853396;29;20162;-80
2023/10/23 13:15:03;;;;;;;;;;;14.10;98.80;;;;;;4854158;29;19912;-79
2023/10/23 13:24:11;;;;;;;;;;;14.20;98.40;;;;;;4854708;29;20200;-80
2023/10/23 13:27:27;;;;;;;;;;;14.20;98.60;;;;;;4842643;29;20216;-79
2023/10/23 13:33:55;;;;;;;;;;;14.00;99.10;;;;;;4853974;29;19924;-78
2023/10/23 13:36:24;;;;;;;;;;;13.90;99.40;;;;;;4853294;29;19915;-78
2023/10/23 13:38:50;;;;;;;;;;;13.90;99.90;;;;;;4836600;29;19915;-78
2023/10/23 13:44:49;;;;;;;;;;;13.90;99.90;;;;;;4811622;29;19994;-79
2023/10/23 13:47:17;;;;;;;;;;;14.00;99.90;;;;;;4796856;30;19980;-77
2023/10/23 13:49:43;;;;;;;;;;;14.20;99.90;;;;;;4796735;30;19910;-78
2023/10/23 13:52:11;;;;;;;;;;;14.40;99.90;;;;;;4781631;30;19951;-78
2023/10/23 13:54:37;;;;;;;;;;;14.50;99.90;;;;;;4796127;29;19909;-79
2023/10/23 13:57:29;;;;;;;;;;;14.50;99.80;;;;;;4795668;30;19989;-79
2023/10/23 14:00:10;;;;;;;;;;;14.40;99.90;;;;;;4803706;29;19916;-78
2023/10/23 14:03:20;;;;;;;;;;;14.50;99.90;;;;;;5115378;27;19977;-78
2023/10/23 14:06:07;;;;;;;;;;;14.50;99.90;;;;;;5120763;28;19908;-79
2023/10/23 14:08:57;;;;;;;;;;;14.50;99.90;;;;;;5102732;28;20105;-78
2023/10/23 14:11:26;;;;;;;;;;;14.50;99.90;;;;;;5099019;28;19924;-78
2023/10/23 14:13:51;;;;;;;;;;;14.40;99.90;;;;;;5115451;28;19914;-78
2023/10/23 14:16:17;;;;;;;;;;;14.50;99.90;;;;;;5099182;28;19904;-78
2023/10/23 14:18:43;;;;;;;;;;;14.40;99.90;;;;;;5111279;28;19908;-78
2023/10/23 14:21:08;;;;;;;;;;;14.40;99.90;;;;;;5115246;28;20011;-78
2023/10/23 14:23:34;;;;;;;;;;;14.50;99.90;;;;;;5133390;28;19912;-78
2023/10/23 14:25:59;;;;;;;;;;;14.60;99.90;;;;;;5115323;28;19908;-78
2023/10/23 14:28:25;;;;;;;;;;;14.90;99.60;;;;;;5099582;28;19954;-79
2023/10/23 14:30:51;;;;;;;;;;;15.20;99.40;;;;;;5100116;28;19981;-79
2023/10/23 14:33:19;;;;;;;;;;;15.40;98.90;;;;;;5099030;28;19932;-79
2023/10/23 14:35:45;;;;;;;;;;;15.40;98.60;;;;;;5103643;28;19915;-78
2023/10/23 14:41:30;;;;;;;;;;;15.10;99.20;;;;;;5100008;28;19938;-79
2023/10/23 14:44:10;;;;;;;;;;;15.00;99.30;;;;;;5098369;28;19908;-79
2023/10/23 14:46:36;;;;;;;;;;;15.00;99.40;;;;;;5132443;28;19916;-79
2023/10/23 14:49:25;;;;;;;;;;;14.80;99.90;;;;;;5114831;28;19908;-79
2023/10/23 14:51:54;;;;;;;;;;;14.70;99.90;;;;;;5049759;28;19916;-78
2023/10/23 14:55:00;;;;;;;;;;;;;;;;;;;;;
2023/10/23 14:57:32;;;;;;;;;;;14.60;99.90;;;;;;5037836;28;19966;-78
2023/10/23 15:00:27;;;;;;;;;;;14.50;99.90;;;;;;5083045;28;19917;-78
2023/10/23 15:06:27;;;;;;;;;;;14.50;99.90;;;;;;5079144;28;19947;-78
2023/10/23 15:09:02;;;;;;;;;;;14.50;99.90;;;;;;5071367;28;19909;-79
2023/10/23 15:11:28;;;;;;;;;;;14.30;99.90;;;;;;5077726;28;20034;-78
2023/10/23 15:17:03;;;;;;;;;;;14.20;99.90;;;;;;5065027;28;19924;-78
2023/10/23 15:19:56;;;;;;;;;;;14.10;99.90;;;;;;5064059;28;19909;-78
2023/10/23 15:22:22;;;;;;;;;;;14.10;99.90;;;;;;5063808;28;19988;-78
2023/10/23 15:25:12;;;;;;;;;;;14.10;99.90;;;;;;5058931;28;20350;-78
2023/10/23 15:27:41;;;;;;;;;;;14.10;99.90;;;;;;5063577;28;19908;-78
2023/10/23 15:30:08;;;;;;;;;;;13.90;99.90;;;;;;5062632;28;19916;-77
2023/10/23 15:32:48;;;;;;;;;;;13.80;99.90;;;;;;5046868;28;19905;-78
2023/10/23 15:38:42;;;;;;;;;;;13.70;99.90;;;;;;5063305;28;20007;-78
2023/10/23 15:41:14;;;;;;;;;;;13.70;99.90;;;;;;5062103;28;20210;-78
2023/10/23 15:43:40;;;;;;;;;;;13.70;99.90;;;;;;5058933;28;19909;-77
2023/10/23 15:46:28;;;;;;;;;;;13.60;99.90;;;;;;5062561;28;19976;-78
2023/10/23 15:48:54;;;;;;;;;;;13.60;99.90;;;;;;5046228;28;20103;-79
2023/10/23 15:51:23;;;;;;;;;;;13.70;99.90;;;;;;5046861;28;19916;-79
2023/10/23 15:53:51;;;;;;;;;;;13.60;99.90;;;;;;5063152;28;19927;-77
2023/10/23 15:56:20;;;;;;;;;;;13.60;99.90;;;;;;5041502;28;19909;-77
2023/10/23 15:58:45;;;;;;;;;;;13.50;99.90;;;;;;5057292;28;19909;-78
2023/10/23 16:03:56;;;;;;;;;;;13.30;99.90;;;;;;5063448;28;20187;-78
2023/10/23 16:06:31;;;;;;;;;;;13.30;99.90;;;;;;5048776;28;19915;-78
2023/10/23 16:08:58;;;;;;;;;;;13.20;99.90;;;;;;5047084;28;19916;-77
2023/10/23 16:11:23;;;;;;;;;;;13.10;99.90;;;;;;5065336;28;19944;-80
2023/10/23 16:13:49;;;;;;;;;;;13.00;99.90;;;;;;5064098;28;20207;-78
2023/10/23 16:16:14;;;;;;;;;;;13.00;99.90;;;;;;5049903;28;20182;-79
2023/10/23 16:18:46;;;;;;;;;;;13.00;99.90;;;;;;5046889;28;20267;-78
2023/10/23 16:21:15;;;;;;;;;;;12.90;99.90;;;;;;5062868;28;19980;-78
2023/10/23 16:23:43;;;;;;;;;;;12.90;99.90;;;;;;5029554;28;19913;-78
2023/10/23 16:26:11;;;;;;;;;;;12.90;99.90;;;;;;5045097;28;19944;-77
2023/10/23 16:28:46;;;;;;;;;;;12.80;99.90;;;;;;5063193;28;20191;-77
2023/10/23 16:31:21;;;;;;;;;;;12.80;99.90;;;;;;5078950;28;20008;-78
2023/10/23 16:33:47;;;;;;;;;;;12.80;99.90;;;;;;5062348;28;19908;-76
2023/10/23 16:36:33;;;;;;;;;;;12.90;99.90;;;;;;5049127;28;19908;-76
2023/10/23 16:38:58;;;;;;;;;;;12.80;99.90;;;;;;5065541;28;19920;-76
2023/10/23 16:41:24;;;;;;;;;;;12.80;99.90;;;;;;5099472;28;20187;-77
2023/10/23 16:47:55;;;;;;;;;;;12.80;99.90;;;;;;5083810;28;20006;-76
2023/10/23 16:50:24;;;;;;;;;;;12.80;99.90;;;;;;5096200;28;19944;-79
2023/10/23 16:53:13;;;;;;;;;;;12.80;99.90;;;;;;5064121;28;19940;-77
2023/10/23 16:55:51;;;;;;;;;;;12.80;99.90;;;;;;5061681;28;19909;-78
2023/10/23 16:58:43;;;;;;;;;;;12.70;99.90;;;;;;5043939;28;19909;-77
2023/10/23 17:01:09;;;;;;;;;;;12.70;99.90;;;;;;5053934;28;20076;-78
2023/10/23 17:03:39;;;;;;;;;;;12.70;99.90;;;;;;5062662;28;20015;-78
2023/10/23 17:06:26;;;;;;;;;;;12.80;99.90;;;;;;5041093;28;19936;-78
2023/10/23 17:09:15;;;;;;;;;;;12.80;99.90;;;;;;5047376;28;19908;-75
2023/10/23 17:12:09;;;;;;;;;;;12.80;99.90;;;;;;5045959;28;19931;-76
2023/10/23 17:18:22;;;;;;;;;;;12.80;99.90;;;;;;5047471;28;19923;-77
2023/10/23 17:24:33;;;;;;;;;;;12.70;99.90;;;;;;5067392;28;19916;-78
2023/10/23 17:27:03;;;;;;;;;;;12.80;99.90;;;;;;5010238;28;20000;-79
2023/10/23 17:29:53;;;;;;;;;;;12.90;99.90;;;;;;5042005;28;19909;-77
2023/10/23 17:36:32;;;;;;;;;;;;;;;;;;;;;
2023/10/23 17:39:22;;;;;;;;;;;12.90;99.90;;;;;;5062625;28;19932;-79
2023/10/23 17:41:51;;;;;;;;;;;12.80;99.90;;;;;;5061844;28;20199;-77
2023/10/23 17:44:17;;;;;;;;;;;12.80;99.90;;;;;;5061098;28;20265;-76
2023/10/23 17:46:48;;;;;;;;;;;12.80;99.90;;;;;;5061867;28;19907;-77
2023/10/23 17:49:18;;;;;;;;;;;12.80;99.90;;;;;;5061620;28;19909;-77
2023/10/23 17:51:43;;;;;;;;;;;12.80;99.90;;;;;;5078728;28;19972;-77
2023/10/23 17:54:10;;;;;;;;;;;12.80;99.90;;;;;;5061246;28;19913;-78
2023/10/23 17:56:40;;;;;;;;;;;12.80;99.90;;;;;;5045190;28;20134;-80
2023/10/23 17:59:05;;;;;;;;;;;12.80;99.90;;;;;;5048958;28;20165;-77
2023/10/23 18:01:31;;;;;;;;;;;12.90;99.90;;;;;;5042279;28;19928;-78
2023/10/23 18:04:00;;;;;;;;;;;12.90;99.90;;;;;;5061816;28;19916;-79
2023/10/23 18:09:45;;;;;;;;;;;13.00;99.90;;;;;;5002053;28;19952;-77
2023/10/23 18:12:11;;;;;;;;;;;13.10;99.90;;;;;;4985262;28;19910;-78
2023/10/23 18:14:37;;;;;;;;;;;13.10;99.90;;;;;;5019322;28;20048;-78
2023/10/23 18:20:32;;;;;;;;;;;13.20;99.90;;;;;;4962511;29;19934;-78
2023/10/23 18:23:01;;;;;;;;;;;13.10;99.90;;;;;;4930534;29;19911;-77
2023/10/23 18:25:48;;;;;;;;;;;13.10;99.90;;;;;;4946164;29;19949;-77
2023/10/23 18:28:17;;;;;;;;;;;13.10;99.90;;;;;;4930431;29;19942;-80
2023/10/23 18:30:43;;;;;;;;;;;13.10;99.90;;;;;;4956273;28;19916;-79
2023/10/23 18:33:08;;;;;;;;;;;13.10;99.90;;;;;;5007550;28;19905;-78
2023/10/23 18:35:40;;;;;;;;;;;13.10;99.90;;;;;;5007660;28;19917;-78
2023/10/23 18:38:21;;;;;;;;;;;13.10;99.90;;;;;;5040489;28;19997;-79
2023/10/23 18:41:24;;;;;;;;;;;13.00;99.90;;;;;;5027262;28;20115;-79
2023/10/23 18:43:50;;;;;;;;;;;13.10;99.90;;;;;;5024253;28;19910;-78
2023/10/23 18:50:04;;;;;;;;;;;13.10;99.90;;;;;;5025006;28;19948;-78
2023/10/23 18:52:48;;;;;;;;;;;13.10;99.90;;;;;;5031461;28;19916;-79
2023/10/23 18:55:48;;;;;;;;;;;13.10;99.90;;;;;;5028084;28;20113;-77
2023/10/23 18:58:20;;;;;;;;;;;13.00;99.90;;;;;;5047731;28;19941;-78
2023/10/23 19:00:45;;;;;;;;;;;13.00;99.90;;;;;;5047993;28;19913;-78
2023/10/23 19:03:37;;;;;;;;;;;13.10;99.90;;;;;;5031188;28;20221;-78
2023/10/23 19:06:02;;;;;;;;;;;13.10;99.90;;;;;;5064041;28;19920;-80
2023/10/23 19:12:03;;;;;;;;;;;13.10;99.90;;;;;;5066133;28;19935;-80
2023/10/23 19:14:28;;;;;;;;;;;13.10;99.90;;;;;;5047513;28;19909;-78
2023/10/23 19:17:09;;;;;;;;;;;13.10;99.90;;;;;;5047623;28;19947;-78
2023/10/23 19:19:41;;;;;;;;;;;13.10;99.90;;;;;;5048622;28;19916;-78
2023/10/23 19:22:10;;;;;;;;;;;13.10;99.90;;;;;;5073643;28;19920;-79
2023/10/23 19:27:53;;;;;;;;;;;13.10;99.90;;;;;;5019808;28;19933;-79
2023/10/23 19:33:26;;;;;;;;;;;13.00;99.90;;;;;;5007156;28;19909;-77
2023/10/23 19:39:07;;;;;;;;;;;12.90;99.90;;;;;;4919382;29;19935;-79
2023/10/23 19:42:07;;;;;;;;;;;13.00;99.90;;;;;;4895528;29;19946;-78
2023/10/23 19:44:36;;;;;;;;;;;12.90;99.90;;;;;;4892526;29;19911;-78
2023/10/23 19:47:04;;;;;;;;;;;13.00;99.90;;;;;;4892195;29;19912;-80
2023/10/23 19:49:42;;;;;;;;;;;13.00;99.90;;;;;;4891805;29;19908;-77
2023/10/23 19:52:35;;;;;;;;;;;13.00;99.90;;;;;;4892140;29;20189;-79
2023/10/23 19:55:04;;;;;;;;;;;13.00;99.90;;;;;;4892116;29;19949;-77
2023/10/23 19:57:51;;;;;;;;;;;13.00;99.90;;;;;;4891086;29;19912;-78
2023/10/23 20:00:17;;;;;;;;;;;12.90;99.90;;;;;;4902647;29;19911;-79
2023/10/23 20:03:23;;;;;;;;;;;13.00;99.90;;;;;;4908413;29;19926;-79
2023/10/23 20:06:55;;;;;;;;;;;12.90;99.90;;;;;;4942596;29;20011;-78
2023/10/23 20:09:55;;;;;;;;;;;12.90;99.90;;;;;;4965514;28;19982;-77
2023/10/23 20:12:22;;;;;;;;;;;13.00;99.90;;;;;;4944853;29;20129;-78
2023/10/23 20:14:59;;;;;;;;;;;13.00;99.90;;;;;;4969511;28;19951;-79
2023/10/23 20:17:25;;;;;;;;;;;13.00;99.90;;;;;;4982646;28;19910;-79
2023/10/23 20:19:51;;;;;;;;;;;13.00;99.90;;;;;;4967992;28;19965;-79
2023/10/23 20:22:19;;;;;;;;;;;13.10;99.90;;;;;;4982634;28;19921;-77
2023/10/23 20:24:45;;;;;;;;;;;13.00;99.90;;;;;;4983673;28;19906;-78
2023/10/23 20:27:14;;;;;;;;;;;13.00;99.90;;;;;;4982638;28;19928;-78
2023/10/23 20:29:40;;;;;;;;;;;13.00;99.90;;;;;;4975906;28;19917;-78
2023/10/23 20:32:05;;;;;;;;;;;13.00;99.90;;;;;;5010490;28;19906;-76
2023/10/23 20:34:34;;;;;;;;;;;13.00;99.90;;;;;;4989023;28;19967;-77
2023/10/23 20:37:24;;;;;;;;;;;12.90;99.90;;;;;;5021733;28;20139;-77
2023/10/23 20:39:50;;;;;;;;;;;12.90;99.90;;;;;;5016257;28;19910;-78
2023/10/23 20:42:44;;;;;;;;;;;12.90;99.90;;;;;;5038179;28;19913;-77
2023/10/23 20:45:10;;;;;;;;;;;12.90;99.90;;;;;;5015630;28;20262;-76
2023/10/23 20:47:35;;;;;;;;;;;12.90;99.90;;;;;;5028238;28;19946;-78
2023/10/23 20:50:01;;;;;;;;;;;12.90;99.90;;;;;;5067238;28;20139;-77
2023/10/23 20:52:33;;;;;;;;;;;12.90;99.90;;;;;;5045748;28;19913;-77
2023/10/23 20:55:02;;;;;;;;;;;12.80;99.90;;;;;;5079522;28;19916;-78
2023/10/23 20:58:17;;;;;;;;;;;12.80;99.90;;;;;;5043380;28;19916;-78
2023/10/23 21:01:14;;;;;;;;;;;12.80;99.90;;;;;;5062362;28;19920;-78
2023/10/23 21:03:40;;;;;;;;;;;12.80;99.90;;;;;;5044973;28;20213;-77
2023/10/23 21:06:34;;;;;;;;;;;12.80;99.90;;;;;;5045803;28;19909;-79
2023/10/23 21:08:59;;;;;;;;;;;12.80;99.90;;;;;;4951986;28;235950;-76
2023/10/23 21:11:33;;;;;;;;;;;12.80;99.90;;;;;;5020034;28;19910;-78
2023/10/23 21:14:02;;;;;;;;;;;12.80;99.90;;;;;;4996832;28;20222;-78
2023/10/23 21:16:28;;;;;;;;;;;12.80;99.90;;;;;;4985943;28;20195;-79
2023/10/23 21:18:54;;;;;;;;;;;12.80;99.90;;;;;;5004070;28;19933;-77
2023/10/23 21:21:50;;;;;;;;;;;12.80;99.90;;;;;;4985695;28;20191;-76
2023/10/23 21:24:16;;;;;;;;;;;12.80;99.90;;;;;;5019197;28;20116;-77
2023/10/23 21:26:57;;;;;;;;;;;12.70;99.90;;;;;;4990418;28;19921;-77
2023/10/23 21:29:23;;;;;;;;;;;12.70;99.90;;;;;;4983004;28;19910;-77
2023/10/23 21:31:49;;;;;;;;;;;12.70;99.90;;;;;;4983087;28;19986;-76
2023/10/23 21:34:18;;;;;;;;;;;12.70;99.90;;;;;;4983055;28;19973;-77
2023/10/23 21:36:44;;;;;;;;;;;12.70;99.90;;;;;;4983452;28;19918;-78
2023/10/23 21:39:10;;;;;;;;;;;12.70;99.90;;;;;;4983158;28;19910;-77
2023/10/23 21:41:36;;;;;;;;;;;12.70;99.90;;;;;;4986719;28;19921;-78
2023/10/23 21:44:03;;;;;;;;;;;12.70;99.90;;;;;;5005805;28;20162;-77